createdAt,value
2018-05-16T00:00:29.072Z,987.07
2018-05-16T00:01:29.216Z,987.07
2018-05-16T00:02:40.070Z,987.08
2018-05-16T00:03:29.465Z,987.09
2018-05-16T00:04:29.604Z,987.08
2018-05-16T00:05:29.741Z,987.10
2018-05-16T00:06:29.887Z,987.11
2018-05-16T00:07:30.022Z,987.04
2018-05-16T00:08:30.160Z,987.05
2018-05-16T00:09:30.309Z,987.09
2018-05-16T00:10:30.446Z,987.04
2018-05-16T00:11:30.587Z,987.08
2018-05-16T00:12:30.730Z,987.08
2018-05-16T00:13:30.863Z,987.05
2018-05-16T00:14:31.007Z,987.05
2018-05-16T00:15:31.147Z,987.06
2018-05-16T00:16:31.286Z,987.04
2018-05-16T00:17:31.426Z,987.07
2018-05-16T00:18:31.561Z,987.06
2018-05-16T00:19:31.701Z,987.06
2018-05-16T00:20:31.837Z,987.06
2018-05-16T00:21:31.970Z,987.04
2018-05-16T00:22:32.103Z,987.02
2018-05-16T00:23:32.268Z,987.05
2018-05-16T00:24:32.387Z,987.08
2018-05-16T00:25:32.528Z,987.06
2018-05-16T00:26:32.668Z,987.04
2018-05-16T00:27:32.807Z,987.07
2018-05-16T00:28:32.946Z,987.03
2018-05-16T00:29:33.089Z,987.06
2018-05-16T00:30:33.228Z,987.02
2018-05-16T00:31:33.362Z,987.06
2018-05-16T00:32:33.507Z,987.09
2018-05-16T00:33:33.662Z,987.09
2018-05-16T00:34:33.804Z,987.07
2018-05-16T00:35:33.939Z,987.08
2018-05-16T00:36:34.101Z,987.04
2018-05-16T00:37:34.231Z,987.05
2018-05-16T00:38:34.369Z,987.07
2018-05-16T00:39:34.518Z,987.05
2018-05-16T00:40:34.646Z,987.03
2018-05-16T00:41:34.784Z,987.02
2018-05-16T00:42:34.988Z,987.06
2018-05-16T00:43:35.032Z,987.01
2018-05-16T00:44:35.166Z,987.01
2018-05-16T00:45:35.315Z,987.00
2018-05-16T00:46:35.454Z,987.00
2018-05-16T00:47:35.609Z,986.98
2018-05-16T00:48:35.744Z,986.96
2018-05-16T00:49:35.891Z,986.94
2018-05-16T00:50:36.024Z,986.98
2018-05-16T00:51:36.189Z,986.94
2018-05-16T00:52:36.324Z,986.94
2018-05-16T00:53:36.467Z,986.95
2018-05-16T00:54:36.604Z,986.95
2018-05-16T00:55:36.745Z,986.99
2018-05-16T00:56:36.886Z,986.98
2018-05-16T00:57:37.025Z,986.94
2018-05-16T00:58:37.203Z,986.98
2018-05-16T00:59:37.341Z,986.96
2018-05-16T01:00:37.481Z,986.91
2018-05-16T01:01:37.619Z,986.91
2018-05-16T01:02:37.788Z,986.91
2018-05-16T01:03:37.936Z,986.89
2018-05-16T01:04:38.096Z,986.86
2018-05-16T01:05:38.210Z,986.91
2018-05-16T01:06:38.381Z,986.88
2018-05-16T01:07:38.517Z,986.91
2018-05-16T01:08:38.661Z,986.90
2018-05-16T01:09:38.792Z,986.91
2018-05-16T01:10:38.936Z,986.93
2018-05-16T01:11:39.068Z,986.92
2018-05-16T01:12:39.200Z,986.95
2018-05-16T01:13:39.336Z,986.93
2018-05-16T01:14:39.505Z,986.92
2018-05-16T01:15:39.632Z,986.92
2018-05-16T01:16:39.770Z,986.90
2018-05-16T01:17:39.938Z,986.89
2018-05-16T01:18:40.076Z,986.91
2018-05-16T01:19:40.206Z,986.92
2018-05-16T01:20:40.345Z,986.91
2018-05-16T01:21:40.515Z,986.95
2018-05-16T01:22:40.651Z,986.92
2018-05-16T01:23:40.794Z,986.91
2018-05-16T01:24:40.931Z,986.94
2018-05-16T01:25:41.099Z,986.90
2018-05-16T01:26:41.230Z,986.92
2018-05-16T01:27:41.373Z,986.96
2018-05-16T01:28:41.505Z,986.96
2018-05-16T01:29:41.704Z,986.95
2018-05-16T01:30:41.799Z,986.94
2018-05-16T01:31:41.933Z,986.95
2018-05-16T01:32:42.073Z,986.95
2018-05-16T01:33:42.235Z,986.92
2018-05-16T01:34:42.367Z,986.92
2018-05-16T01:35:42.510Z,986.94
2018-05-16T01:36:42.655Z,986.95
2018-05-16T01:37:42.807Z,986.92
2018-05-16T01:38:42.945Z,986.96
2018-05-16T01:39:43.084Z,986.95
2018-05-16T01:40:43.219Z,986.94
2018-05-16T01:41:43.372Z,986.97
2018-05-16T01:42:43.509Z,986.96
2018-05-16T01:43:43.648Z,986.95
2018-05-16T01:44:43.786Z,986.88
2018-05-16T01:45:43.962Z,986.92
2018-05-16T01:46:44.096Z,986.92
2018-05-16T01:47:44.241Z,986.92
2018-05-16T01:48:44.403Z,986.94
2018-05-16T01:49:44.565Z,986.96
2018-05-16T01:50:44.700Z,986.98
2018-05-16T01:51:44.839Z,987.00
2018-05-16T01:52:44.985Z,986.97
2018-05-16T01:53:45.123Z,986.98
2018-05-16T01:54:45.262Z,987.01
2018-05-16T01:55:45.401Z,986.98
2018-05-16T01:56:45.571Z,986.98
2018-05-16T01:57:45.706Z,987.04
2018-05-16T01:58:45.849Z,987.00
2018-05-16T01:59:45.992Z,986.99
2018-05-16T02:00:46.151Z,986.99
2018-05-16T02:01:46.288Z,986.97
2018-05-16T02:02:46.423Z,986.93
2018-05-16T02:03:46.577Z,986.93
2018-05-16T02:04:46.712Z,986.92
2018-05-16T02:05:46.900Z,986.93
2018-05-16T02:06:47.041Z,986.90
2018-05-16T02:07:47.226Z,986.88
2018-05-16T02:08:47.332Z,986.89
2018-05-16T02:09:47.498Z,986.88
2018-05-16T02:10:47.662Z,986.89
2018-05-16T02:11:47.831Z,986.89
2018-05-16T02:12:47.940Z,986.90
2018-05-16T02:13:48.076Z,986.91
2018-05-16T02:14:48.213Z,986.94
2018-05-16T02:15:48.376Z,986.96
2018-05-16T02:16:48.505Z,986.94
2018-05-16T02:17:48.651Z,986.91
2018-05-16T02:18:48.800Z,986.92
2018-05-16T02:19:48.976Z,986.99
2018-05-16T02:20:49.102Z,986.98
2018-05-16T02:21:49.247Z,987.02
2018-05-16T02:22:49.410Z,987.06
2018-05-16T02:23:49.540Z,987.08
2018-05-16T02:24:49.679Z,987.05
2018-05-16T02:25:49.819Z,987.03
2018-05-16T02:26:49.950Z,987.00
2018-05-16T02:27:50.089Z,986.99
2018-05-16T02:28:50.220Z,987.01
2018-05-16T02:29:50.368Z,987.00
2018-05-16T02:30:50.516Z,986.97
2018-05-16T02:31:50.649Z,986.97
2018-05-16T02:32:50.801Z,986.98
2018-05-16T02:33:50.931Z,986.98
2018-05-16T02:34:51.121Z,987.00
2018-05-16T02:35:51.976Z,986.97
2018-05-16T02:36:51.371Z,986.94
2018-05-16T02:37:51.511Z,986.97
2018-05-16T02:38:51.677Z,987.00
2018-05-16T02:39:51.810Z,986.97
2018-05-16T02:40:51.949Z,986.98
2018-05-16T02:41:52.106Z,986.96
2018-05-16T02:42:52.241Z,986.99
2018-05-16T02:43:52.382Z,986.98
2018-05-16T02:44:52.979Z,986.98
2018-05-16T02:45:52.621Z,987.00
2018-05-16T02:46:52.761Z,987.01
2018-05-16T02:47:52.903Z,986.99
2018-05-16T02:48:53.039Z,986.98
2018-05-16T02:49:53.210Z,986.96
2018-05-16T02:50:53.345Z,986.95
2018-05-16T02:51:53.476Z,986.89
2018-05-16T02:52:53.656Z,986.90
2018-05-16T02:53:53.782Z,986.88
2018-05-16T02:54:53.924Z,986.89
2018-05-16T02:55:54.101Z,986.90
2018-05-16T02:56:54.219Z,986.88
2018-05-16T02:57:54.356Z,986.90
2018-05-16T02:58:54.507Z,986.94
2018-05-16T02:59:54.647Z,986.94
2018-05-16T03:00:54.782Z,986.97
2018-05-16T03:01:54.913Z,987.00
2018-05-16T03:02:55.060Z,986.99
2018-05-16T03:03:55.194Z,986.96
2018-05-16T03:04:55.336Z,986.98
2018-05-16T03:05:55.470Z,986.98
2018-05-16T03:06:55.692Z,987.01
2018-05-16T03:07:55.796Z,987.00
2018-05-16T03:08:55.811Z,987.03
2018-05-16T03:09:55.945Z,987.00
2018-05-16T03:10:56.087Z,987.06
2018-05-16T03:11:56.246Z,987.06
2018-05-16T03:12:56.365Z,987.04
2018-05-16T03:13:56.514Z,987.06
2018-05-16T03:14:56.667Z,987.06
2018-05-16T03:15:56.808Z,987.06
2018-05-16T03:16:56.966Z,987.07
2018-05-16T03:17:57.107Z,987.08
2018-05-16T03:18:57.243Z,987.10
2018-05-16T03:19:57.387Z,987.10
2018-05-16T03:20:57.530Z,987.07
2018-05-16T03:21:57.666Z,987.05
2018-05-16T03:22:57.805Z,987.09
2018-05-16T03:23:57.942Z,987.11
2018-05-16T03:24:58.082Z,987.13
2018-05-16T03:25:58.207Z,987.12
2018-05-16T03:26:58.358Z,987.15
2018-05-16T03:27:58.502Z,987.09
2018-05-16T03:28:58.639Z,987.10
2018-05-16T03:29:58.782Z,987.12
2018-05-16T03:30:58.926Z,987.08
2018-05-16T03:31:59.070Z,987.12
2018-05-16T03:32:59.197Z,987.13
2018-05-16T03:33:59.335Z,987.08
2018-05-16T03:34:59.481Z,987.09
2018-05-16T03:35:59.623Z,987.08
2018-05-16T03:36:59.764Z,987.10
2018-05-16T03:37:59.902Z,987.09
2018-05-16T03:39:00.045Z,987.08
2018-05-16T03:40:00.177Z,987.09
2018-05-16T03:41:00.317Z,987.09
2018-05-16T03:42:00.456Z,987.07
2018-05-16T03:43:00.591Z,987.07
2018-05-16T03:44:00.728Z,987.12
2018-05-16T03:45:00.870Z,987.07
2018-05-16T03:46:01.012Z,987.08
2018-05-16T03:47:01.149Z,987.08
2018-05-16T03:48:01.287Z,987.10
2018-05-16T03:49:01.423Z,987.12
2018-05-16T03:50:01.568Z,987.16
2018-05-16T03:51:01.715Z,987.22
2018-05-16T03:52:01.884Z,987.21
2018-05-16T03:53:01.995Z,987.19
2018-05-16T03:54:02.132Z,987.19
2018-05-16T03:55:02.276Z,987.20
2018-05-16T03:56:02.409Z,987.20
2018-05-16T03:57:02.548Z,987.18
2018-05-16T03:58:02.724Z,987.19
2018-05-16T03:59:02.863Z,987.19
2018-05-16T04:00:03.015Z,987.13
2018-05-16T04:01:03.156Z,987.17
2018-05-16T04:02:03.294Z,987.17
2018-05-16T04:03:03.429Z,987.20
2018-05-16T04:04:03.562Z,987.19
2018-05-16T04:05:03.703Z,987.23
2018-05-16T04:06:03.842Z,987.21
2018-05-16T04:07:03.978Z,987.24
2018-05-16T04:08:04.125Z,987.22
2018-05-16T04:09:04.255Z,987.22
2018-05-16T04:10:05.005Z,987.23
2018-05-16T04:11:04.547Z,987.20
2018-05-16T04:12:04.686Z,987.18
2018-05-16T04:13:04.818Z,987.19
2018-05-16T04:14:04.965Z,987.22
2018-05-16T04:15:05.096Z,987.20
2018-05-16T04:16:05.235Z,987.22
2018-05-16T04:17:05.375Z,987.20
2018-05-16T04:18:05.512Z,987.26
2018-05-16T04:19:05.663Z,987.25
2018-05-16T04:20:05.805Z,987.23
2018-05-16T04:21:05.943Z,987.23
2018-05-16T04:22:06.104Z,987.21
2018-05-16T04:23:06.249Z,987.24
2018-05-16T04:24:06.399Z,987.22
2018-05-16T04:25:06.532Z,987.23
2018-05-16T04:26:06.685Z,987.20
2018-05-16T04:27:06.814Z,987.19
2018-05-16T04:28:06.960Z,987.23
2018-05-16T04:29:07.088Z,987.26
2018-05-16T04:30:07.261Z,987.33
2018-05-16T04:31:07.394Z,987.32
2018-05-16T04:32:07.538Z,987.30
2018-05-16T04:33:07.702Z,987.31
2018-05-16T04:34:07.835Z,987.30
2018-05-16T04:35:07.976Z,987.30
2018-05-16T04:36:08.112Z,987.25
2018-05-16T04:37:08.281Z,987.26
2018-05-16T04:38:08.414Z,987.24
2018-05-16T04:39:08.558Z,987.28
2018-05-16T04:40:08.693Z,987.27
2018-05-16T04:41:08.846Z,987.22
2018-05-16T04:42:08.983Z,987.20
2018-05-16T04:43:09.126Z,987.20
2018-05-16T04:44:09.283Z,987.20
2018-05-16T04:45:09.418Z,987.21
2018-05-16T04:46:09.556Z,987.23
2018-05-16T04:47:09.709Z,987.26
2018-05-16T04:48:09.870Z,987.29
2018-05-16T04:49:10.001Z,987.38
2018-05-16T04:50:10.143Z,987.39
2018-05-16T04:51:10.282Z,987.43
2018-05-16T04:52:10.430Z,987.40
2018-05-16T04:53:10.561Z,987.48
2018-05-16T04:54:10.701Z,987.48
2018-05-16T04:55:10.862Z,987.49
2018-05-16T04:56:10.993Z,987.49
2018-05-16T04:57:11.126Z,987.47
2018-05-16T04:58:11.271Z,987.43
2018-05-16T04:59:11.440Z,987.46
2018-05-16T05:00:11.575Z,987.43
2018-05-16T05:01:11.717Z,987.47
2018-05-16T05:02:11.856Z,987.51
2018-05-16T05:03:11.998Z,987.51
2018-05-16T05:04:12.132Z,987.57
2018-05-16T05:05:12.272Z,987.51
2018-05-16T05:06:12.407Z,987.51
2018-05-16T05:07:12.576Z,987.51
2018-05-16T05:08:12.716Z,987.45
2018-05-16T05:09:12.862Z,987.45
2018-05-16T05:10:13.002Z,987.51
2018-05-16T05:11:13.159Z,987.48
2018-05-16T05:12:13.294Z,987.46
2018-05-16T05:13:13.437Z,987.46
2018-05-16T05:14:13.577Z,987.44
2018-05-16T05:15:13.739Z,987.48
2018-05-16T05:16:13.877Z,987.47
2018-05-16T05:17:14.019Z,987.47
2018-05-16T05:18:14.268Z,987.45
2018-05-16T05:19:14.317Z,987.47
2018-05-16T05:20:14.452Z,987.45
2018-05-16T05:21:14.601Z,987.46
2018-05-16T05:22:14.733Z,987.43
2018-05-16T05:23:14.873Z,987.47
2018-05-16T05:24:15.019Z,987.51
2018-05-16T05:25:15.192Z,987.52
2018-05-16T05:26:15.327Z,987.52
2018-05-16T05:27:15.479Z,987.55
2018-05-16T05:28:15.610Z,987.56
2018-05-16T05:29:15.774Z,987.55
2018-05-16T05:30:15.932Z,987.56
2018-05-16T05:31:16.053Z,987.53
2018-05-16T05:32:16.195Z,987.56
2018-05-16T05:33:16.356Z,987.59
2018-05-16T05:34:16.501Z,987.61
2018-05-16T05:35:16.633Z,987.62
2018-05-16T05:36:16.833Z,987.63
2018-05-16T05:37:16.877Z,987.63
2018-05-16T05:38:17.010Z,987.65
2018-05-16T05:39:17.149Z,987.62
2018-05-16T05:40:17.287Z,987.62
2018-05-16T05:41:17.450Z,987.61
2018-05-16T05:42:17.588Z,987.64
2018-05-16T05:43:17.721Z,987.62
2018-05-16T05:44:17.860Z,987.64
2018-05-16T05:45:18.006Z,987.66
2018-05-16T05:46:18.144Z,987.62
2018-05-16T05:47:18.279Z,987.66
2018-05-16T05:48:18.416Z,987.68
2018-05-16T05:49:18.636Z,987.65
2018-05-16T05:50:18.723Z,987.65
2018-05-16T05:51:18.865Z,987.67
2018-05-16T05:52:19.011Z,987.67
2018-05-16T05:53:19.166Z,987.69
2018-05-16T05:54:19.295Z,987.66
2018-05-16T05:55:19.437Z,987.69
2018-05-16T05:56:19.607Z,987.73
2018-05-16T05:57:19.745Z,987.79
2018-05-16T05:58:19.885Z,987.73
2018-05-16T05:59:20.055Z,987.76
2018-05-16T06:00:20.191Z,987.73
2018-05-16T06:01:20.327Z,987.74
2018-05-16T06:02:20.534Z,987.75
2018-05-16T06:03:20.621Z,987.72
2018-05-16T06:04:20.757Z,987.71
2018-05-16T06:05:20.981Z,987.74
2018-05-16T06:06:21.147Z,987.74
2018-05-16T06:07:21.187Z,987.73
2018-05-16T06:08:21.322Z,987.72
2018-05-16T06:09:21.486Z,987.76
2018-05-16T06:10:21.623Z,987.75
2018-05-16T06:11:21.766Z,987.77
2018-05-16T06:12:21.909Z,987.75
2018-05-16T06:13:22.060Z,987.76
2018-05-16T06:14:22.193Z,987.79
2018-05-16T06:15:22.336Z,987.76
2018-05-16T06:16:22.482Z,987.75
2018-05-16T06:17:22.643Z,987.74
2018-05-16T06:18:22.787Z,987.75
2018-05-16T06:19:22.930Z,987.76
2018-05-16T06:20:23.091Z,987.76
2018-05-16T06:21:23.219Z,987.73
2018-05-16T06:22:23.360Z,987.76
2018-05-16T06:23:23.497Z,987.81
2018-05-16T06:24:23.658Z,987.86
2018-05-16T06:25:23.793Z,987.81
2018-05-16T06:26:23.940Z,987.83
2018-05-16T06:27:24.254Z,987.80
2018-05-16T06:28:24.227Z,987.82
2018-05-16T06:29:24.356Z,987.83
2018-05-16T06:30:24.496Z,987.84
2018-05-16T06:31:24.637Z,987.87
2018-05-16T06:32:24.796Z,987.83
2018-05-16T06:33:24.925Z,987.85
2018-05-16T06:34:25.072Z,987.84
2018-05-16T06:35:25.236Z,987.84
2018-05-16T06:36:25.372Z,987.86
2018-05-16T06:37:25.518Z,987.81
2018-05-16T06:38:25.656Z,987.78
2018-05-16T06:39:25.808Z,987.80
2018-05-16T06:40:25.942Z,987.78
2018-05-16T06:41:26.090Z,987.79
2018-05-16T06:42:26.228Z,987.79
2018-05-16T06:43:26.368Z,987.81
2018-05-16T06:44:26.516Z,987.81
2018-05-16T06:45:26.654Z,987.81
2018-05-16T06:46:26.791Z,987.79
2018-05-16T06:47:26.982Z,987.81
2018-05-16T06:48:27.119Z,987.75
2018-05-16T06:49:27.255Z,987.78
2018-05-16T06:50:27.399Z,987.75
2018-05-16T06:51:27.536Z,987.73
2018-05-16T06:52:27.677Z,987.72
2018-05-16T06:53:27.815Z,987.75
2018-05-16T06:54:27.951Z,987.77
2018-05-16T06:55:28.091Z,987.76
2018-05-16T06:56:28.289Z,987.80
2018-05-16T06:57:28.387Z,987.79
2018-05-16T06:58:28.506Z,987.79
2018-05-16T06:59:28.711Z,987.82
2018-05-16T07:00:28.745Z,987.85
2018-05-16T07:01:28.880Z,987.83
2018-05-16T07:02:29.020Z,987.85
2018-05-16T07:03:29.156Z,987.83
2018-05-16T07:04:29.301Z,987.85
2018-05-16T07:05:29.441Z,987.87
2018-05-16T07:06:29.579Z,987.84
2018-05-16T07:07:29.717Z,987.86
2018-05-16T07:08:29.857Z,987.87
2018-05-16T07:09:29.993Z,987.87
2018-05-16T07:10:30.135Z,987.84
2018-05-16T07:11:30.282Z,987.86
2018-05-16T07:12:30.425Z,987.87
2018-05-16T07:13:30.584Z,987.85
2018-05-16T07:14:30.706Z,987.90
2018-05-16T07:15:30.839Z,987.86
2018-05-16T07:16:30.996Z,987.88
2018-05-16T07:17:31.123Z,987.89
2018-05-16T07:18:31.255Z,987.89
2018-05-16T07:19:31.394Z,987.91
2018-05-16T07:20:31.536Z,987.94
2018-05-16T07:21:31.672Z,987.96
2018-05-16T07:22:31.824Z,987.95
2018-05-16T07:23:31.952Z,987.97
2018-05-16T07:24:32.094Z,987.94
2018-05-16T07:25:32.237Z,987.96
2018-05-16T07:26:32.381Z,987.95
2018-05-16T07:27:32.517Z,987.94
2018-05-16T07:28:32.686Z,987.92
2018-05-16T07:29:32.829Z,987.91
2018-05-16T07:30:32.974Z,987.91
2018-05-16T07:31:33.146Z,987.88
2018-05-16T07:32:33.338Z,987.92
2018-05-16T07:33:33.416Z,987.91
2018-05-16T07:34:33.553Z,987.92
2018-05-16T07:35:33.697Z,987.90
2018-05-16T07:36:33.834Z,987.94
2018-05-16T07:37:33.972Z,987.93
2018-05-16T07:38:34.116Z,987.96
2018-05-16T07:39:34.255Z,987.92
2018-05-16T07:40:34.403Z,987.94
2018-05-16T07:41:34.540Z,987.95
2018-05-16T07:42:34.677Z,987.96
2018-05-16T07:43:34.829Z,987.94
2018-05-16T07:44:34.964Z,987.96
2018-05-16T07:45:35.105Z,987.96
2018-05-16T07:46:35.264Z,987.98
2018-05-16T07:47:35.426Z,988.01
2018-05-16T07:48:35.563Z,987.99
2018-05-16T07:49:35.701Z,988.01
2018-05-16T07:50:35.840Z,987.99
2018-05-16T07:51:35.987Z,988.05
2018-05-16T07:52:36.128Z,988.03
2018-05-16T07:53:36.266Z,988.02
2018-05-16T07:54:36.486Z,988.03
2018-05-16T07:55:36.547Z,987.99
2018-05-16T07:56:36.685Z,987.99
2018-05-16T07:57:36.827Z,988.12
2018-05-16T07:58:36.970Z,988.11
2018-05-16T07:59:37.108Z,988.10
2018-05-16T08:00:37.244Z,988.12
2018-05-16T08:01:37.383Z,988.11
2018-05-16T08:02:37.518Z,988.10
2018-05-16T08:03:37.660Z,988.14
2018-05-16T08:04:37.809Z,988.11
2018-05-16T08:05:37.942Z,988.15
2018-05-16T08:06:38.081Z,988.14
2018-05-16T08:07:38.227Z,988.19
2018-05-16T08:08:38.365Z,988.20
2018-05-16T08:09:38.512Z,988.18
2018-05-16T08:10:38.655Z,988.19
2018-05-16T08:11:38.875Z,988.20
2018-05-16T08:12:38.995Z,988.15
2018-05-16T08:13:39.069Z,988.18
2018-05-16T08:14:39.215Z,988.11
2018-05-16T08:15:39.354Z,988.13
2018-05-16T08:16:39.494Z,988.17
2018-05-16T08:17:39.638Z,988.10
2018-05-16T08:18:39.776Z,988.10
2018-05-16T08:19:39.917Z,988.14
2018-05-16T08:20:40.063Z,988.12
2018-05-16T08:21:40.207Z,988.15
2018-05-16T08:22:40.343Z,988.16
2018-05-16T08:23:40.497Z,988.20
2018-05-16T08:24:40.698Z,988.17
2018-05-16T08:25:40.795Z,988.23
2018-05-16T08:26:40.937Z,988.23
2018-05-16T08:27:41.079Z,988.25
2018-05-16T08:28:41.236Z,988.25
2018-05-16T08:29:41.374Z,988.27
2018-05-16T08:30:41.516Z,988.27
2018-05-16T08:31:41.653Z,988.27
2018-05-16T08:32:41.804Z,988.30
2018-05-16T08:33:41.937Z,988.31
2018-05-16T08:34:42.079Z,988.29
2018-05-16T08:35:42.247Z,988.30
2018-05-16T08:36:42.451Z,988.31
2018-05-16T08:37:42.511Z,988.32
2018-05-16T08:38:42.657Z,988.27
2018-05-16T08:39:42.821Z,988.30
2018-05-16T08:40:42.961Z,988.31
2018-05-16T08:41:43.105Z,988.30
2018-05-16T08:42:43.249Z,988.30
2018-05-16T08:43:43.413Z,988.30
2018-05-16T08:44:43.546Z,988.32
2018-05-16T08:45:43.684Z,988.33
2018-05-16T08:46:43.827Z,988.34
2018-05-16T08:47:43.980Z,988.35
2018-05-16T08:48:44.125Z,988.33
2018-05-16T08:49:44.265Z,988.34
2018-05-16T08:50:44.407Z,988.31
2018-05-16T08:51:44.659Z,988.34
2018-05-16T08:52:44.616Z,988.31
2018-05-16T08:53:44.776Z,988.32
2018-05-16T08:54:44.911Z,988.29
2018-05-16T08:55:45.059Z,988.26
2018-05-16T08:56:45.199Z,988.32
2018-05-16T08:57:45.349Z,988.32
2018-05-16T08:58:45.499Z,988.33
2018-05-16T08:59:45.670Z,988.33
2018-05-16T09:00:45.806Z,988.33
2018-05-16T09:01:45.948Z,988.33
2018-05-16T09:02:46.112Z,988.31
2018-05-16T09:03:46.248Z,988.30
2018-05-16T09:04:46.388Z,988.31
2018-05-16T09:05:46.532Z,988.29
2018-05-16T09:06:46.771Z,988.28
2018-05-16T09:07:46.758Z,988.23
2018-05-16T09:08:46.901Z,988.23
2018-05-16T09:09:47.031Z,988.24
2018-05-16T09:10:47.184Z,988.22
2018-05-16T09:11:47.320Z,988.25
2018-05-16T09:12:47.466Z,988.23
2018-05-16T09:13:47.616Z,988.26
2018-05-16T09:14:47.761Z,988.24
2018-05-16T09:15:47.903Z,988.22
2018-05-16T09:16:48.042Z,988.22
2018-05-16T09:17:48.208Z,988.20
2018-05-16T09:18:48.344Z,988.22
2018-05-16T09:19:48.485Z,988.19
2018-05-16T09:20:48.633Z,988.23
2018-05-16T09:21:48.774Z,988.22
2018-05-16T09:22:48.908Z,988.22
2018-05-16T09:23:49.051Z,988.23
2018-05-16T09:24:49.222Z,988.22
2018-05-16T09:25:49.342Z,988.21
2018-05-16T09:26:49.482Z,988.19
2018-05-16T09:27:49.626Z,988.24
2018-05-16T09:28:49.791Z,988.24
2018-05-16T09:29:49.933Z,988.21
2018-05-16T09:30:50.072Z,988.26
2018-05-16T09:31:50.235Z,988.24
2018-05-16T09:32:50.393Z,988.24
2018-05-16T09:33:50.517Z,988.21
2018-05-16T09:34:50.662Z,988.23
2018-05-16T09:35:50.863Z,988.17
2018-05-16T09:36:50.977Z,988.20
2018-05-16T09:37:51.113Z,988.28
2018-05-16T09:38:51.250Z,988.25
2018-05-16T09:39:51.389Z,988.21
2018-05-16T09:40:51.521Z,988.18
2018-05-16T09:41:51.666Z,988.21
2018-05-16T09:42:51.828Z,988.24
2018-05-16T09:43:51.969Z,988.27
2018-05-16T09:44:52.111Z,988.26
2018-05-16T09:45:52.315Z,988.21
2018-05-16T09:46:52.423Z,988.19
2018-05-16T09:47:52.559Z,988.21
2018-05-16T09:48:52.734Z,988.17
2018-05-16T09:49:52.868Z,988.17
2018-05-16T09:50:53.013Z,988.21
2018-05-16T09:51:53.146Z,988.14
2018-05-16T09:52:53.288Z,988.16
2018-05-16T09:53:53.436Z,988.12
2018-05-16T09:54:53.608Z,988.16
2018-05-16T09:55:53.747Z,988.18
2018-05-16T09:56:53.894Z,988.15
2018-05-16T09:57:54.039Z,988.16
2018-05-16T09:58:54.205Z,988.22
2018-05-16T09:59:54.315Z,988.18
2018-05-16T10:00:54.458Z,988.19
2018-05-16T10:01:54.601Z,988.22
2018-05-16T10:02:54.794Z,988.21
2018-05-16T10:03:54.879Z,988.24
2018-05-16T10:04:55.014Z,988.24
2018-05-16T10:05:55.161Z,988.24
2018-05-16T10:06:55.311Z,988.23
2018-05-16T10:07:55.448Z,988.23
2018-05-16T10:08:55.591Z,988.21
2018-05-16T10:09:55.757Z,988.23
2018-05-16T10:10:55.881Z,988.25
2018-05-16T10:11:56.021Z,988.21
2018-05-16T10:12:56.165Z,988.20
2018-05-16T10:13:56.326Z,988.20
2018-05-16T10:14:56.460Z,988.23
2018-05-16T10:15:56.604Z,988.28
2018-05-16T10:16:56.758Z,988.28
2018-05-16T10:17:56.916Z,988.32
2018-05-16T10:18:57.057Z,988.35
2018-05-16T10:19:57.195Z,988.34
2018-05-16T10:20:57.370Z,988.33
2018-05-16T10:21:57.513Z,988.38
2018-05-16T10:22:58.080Z,988.36
2018-05-16T10:23:57.816Z,988.37
2018-05-16T10:24:57.944Z,988.32
2018-05-16T10:25:58.537Z,988.34
2018-05-16T10:26:58.208Z,988.31
2018-05-16T10:27:59.571Z,988.36
2018-05-16T10:28:58.498Z,988.34
2018-05-16T10:29:58.628Z,988.34
2018-05-16T10:30:58.782Z,988.31
2018-05-16T10:31:58.921Z,988.33
2018-05-16T10:32:59.066Z,988.32
2018-05-16T10:33:59.217Z,988.33
2018-05-16T10:34:59.361Z,988.30
2018-05-16T10:35:59.502Z,988.29
2018-05-16T10:37:00.776Z,988.32
2018-05-16T10:37:59.772Z,988.28
2018-05-16T10:38:59.918Z,988.27
2018-05-16T10:40:00.057Z,988.24
2018-05-16T10:41:00.221Z,988.31
2018-05-16T10:42:00.368Z,988.24
2018-05-16T10:43:00.538Z,988.25
2018-05-16T10:44:00.680Z,988.21
2018-05-16T10:45:00.827Z,988.18
2018-05-16T10:46:00.987Z,988.13
2018-05-16T10:47:01.119Z,988.19
2018-05-16T10:48:01.268Z,988.17
2018-05-16T10:49:01.414Z,988.19
2018-05-16T10:50:01.555Z,988.17
2018-05-16T10:51:01.698Z,988.16
2018-05-16T10:52:01.838Z,988.21
2018-05-16T10:53:01.976Z,988.18
2018-05-16T10:54:02.141Z,988.18
2018-05-16T10:55:02.286Z,988.22
2018-05-16T10:56:02.428Z,988.23
2018-05-16T10:57:02.571Z,988.26
2018-05-16T10:58:03.623Z,988.26
2018-05-16T10:59:02.794Z,988.27
2018-05-16T11:00:02.936Z,988.23
2018-05-16T11:01:03.077Z,988.20
2018-05-16T11:02:03.223Z,988.17
2018-05-16T11:03:03.370Z,988.16
2018-05-16T11:04:03.513Z,988.16
2018-05-16T11:05:03.664Z,988.14
2018-05-16T11:06:03.799Z,988.11
2018-05-16T11:07:03.943Z,988.10
2018-05-16T11:08:04.083Z,988.09
2018-05-16T11:09:04.233Z,988.09
2018-05-16T11:10:04.382Z,988.12
2018-05-16T11:11:04.531Z,988.09
2018-05-16T11:12:04.679Z,988.15
2018-05-16T11:13:04.816Z,988.14
2018-05-16T11:14:04.955Z,988.12
2018-05-16T11:15:05.098Z,988.14
2018-05-16T11:16:05.252Z,988.05
2018-05-16T11:17:05.396Z,988.06
2018-05-16T11:18:05.540Z,988.07
2018-05-16T11:19:05.676Z,988.08
2018-05-16T11:20:05.822Z,988.07
2018-05-16T11:21:05.953Z,988.06
2018-05-16T11:22:06.093Z,988.04
2018-05-16T11:23:06.236Z,988.07
2018-05-16T11:24:06.385Z,988.02
2018-05-16T11:25:06.543Z,987.97
2018-05-16T11:26:06.679Z,987.97
2018-05-16T11:27:06.823Z,987.98
2018-05-16T11:28:06.966Z,987.98
2018-05-16T11:29:07.129Z,988.05
2018-05-16T11:30:07.273Z,988.02
2018-05-16T11:31:07.417Z,988.02
2018-05-16T11:32:07.565Z,988.03
2018-05-16T11:33:07.714Z,988.04
2018-05-16T11:34:07.853Z,988.01
2018-05-16T11:35:08.009Z,987.99
2018-05-16T11:36:08.151Z,987.97
2018-05-16T11:37:08.342Z,988.02
2018-05-16T11:38:08.451Z,988.04
2018-05-16T11:39:08.591Z,987.96
2018-05-16T11:40:08.731Z,987.99
2018-05-16T11:41:08.908Z,987.96
2018-05-16T11:42:09.037Z,987.96
2018-05-16T11:43:09.176Z,987.97
2018-05-16T11:44:09.317Z,987.97
2018-05-16T11:45:09.465Z,987.99
2018-05-16T11:46:09.603Z,987.98
2018-05-16T11:47:09.746Z,987.96
2018-05-16T11:48:09.896Z,987.96
2018-05-16T11:49:10.033Z,987.98
2018-05-16T11:50:10.177Z,987.98
2018-05-16T11:51:10.321Z,987.98
2018-05-16T11:52:10.489Z,987.97
2018-05-16T11:53:10.676Z,987.99
2018-05-16T11:54:10.770Z,987.99
2018-05-16T11:55:10.934Z,987.95
2018-05-16T11:56:11.091Z,987.98
2018-05-16T11:57:11.213Z,987.95
2018-05-16T11:58:11.360Z,987.95
2018-05-16T11:59:11.561Z,987.92
2018-05-16T12:00:11.672Z,987.97
2018-05-16T12:01:11.813Z,987.96
2018-05-16T12:02:11.954Z,987.90
2018-05-16T12:03:12.123Z,987.93
2018-05-16T12:04:12.261Z,987.94
2018-05-16T12:05:12.430Z,987.91
2018-05-16T12:06:12.543Z,987.87
2018-05-16T12:07:12.697Z,987.88
2018-05-16T12:08:12.842Z,987.88
2018-05-16T12:09:13.041Z,987.84
2018-05-16T12:10:13.167Z,987.84
2018-05-16T12:11:13.295Z,987.78
2018-05-16T12:12:13.441Z,987.77
2018-05-16T12:13:13.598Z,987.75
2018-05-16T12:14:13.732Z,987.73
2018-05-16T12:15:13.872Z,987.71
2018-05-16T12:16:14.019Z,987.70
2018-05-16T12:17:14.189Z,987.70
2018-05-16T12:18:14.332Z,987.71
2018-05-16T12:19:14.473Z,987.73
2018-05-16T12:20:14.614Z,987.75
2018-05-16T12:21:14.783Z,987.75
2018-05-16T12:22:14.916Z,987.75
2018-05-16T12:23:15.063Z,987.75
2018-05-16T12:24:15.226Z,987.74
2018-05-16T12:25:15.366Z,987.72
2018-05-16T12:26:15.509Z,987.74
2018-05-16T12:27:15.652Z,987.72
2018-05-16T12:28:15.801Z,987.76
2018-05-16T12:29:16.000Z,987.78
2018-05-16T12:30:16.084Z,987.77